Hickory Regional Airport
KHKY : now visible

Airfield :











YOU CAN JOIN US ON...

 
LOGIN :

Register | Disclaimer

   EN    FR    IT 

 









Legend :    VFR   Marginal VFR   IFR   Intensive IFR   Very Intensive IFR
Visi :
Ceiling :
>= 8 km
>= 3000ft
5 to 8 km
1000 to 3000 ft
1500m to 5 km
500 to 1000 ft
800 to 1500m
200 to 500 ft
< 800m
< 200 ft
Symbols :   Thunderstorms  Fog  Heavy snow  Heavy precipitations  Wind > 20 kt







- Airport Elevation : 1190 ft
- IATA code : HKY


KHKY - Hickory Regional

CURRENT METAR :
  • 181553Z 20008G15KT 10SM SCT028 SCT035 22/15 A3003 RMK AO2 SLP149 T02170150

EXPIRED METARs :
  • 181518Z 21013G19KT 10SM SCT027 SCT033 22/15 A3003 RMK AO2 T02170150
  • 181453Z 20010G15KT 170V240 10SM BKN027 21/15 A3004 RMK AO2 SLP153 T02110150 51004
  • 181353Z 19008KT 10SM CLR 19/14 A3003 RMK AO2 SLP149 T01940144

TAF KHKY
Valid from the 18 at 15:00 until the 19 at 12:00 UTC


181515Z 1815/1912 20009G15KT P6SM BKN027
FM181700 20011G18KT P6SM SCT180
FM190400 17011KT P6SM BKN030
PROB30 1904/1906 4SM -SHRA OVC015
FM190600 17010KT P6SM OVC015
PROB30 1906/1910 4SM -SHRA OVC008
FM191000 17012G27KT P6SM -SHRA OVC008
KZTL FIR / North America



MET'MAP, your aeronautical weather chart ! - Copyright ORBIFLY December 2007 - Disclaimer

ORBIFLY MET'MAP TEAM :

Programming & Development : Alexandra Zaïnal
Concept & Development : Baudouin d'Aumeries
Co-Development & Prog : Marc-Olivier Méhu
Technical & hardware support : Manuel Goepfert

Contact : metmap@orbifly.com




SOURCES & CREDITS :

   NOAA       Earth
Advisory